sensor_id;sensor_type;location;lat;lon;timestamp;P1;durP1;ratioP1;P2;durP2;ratioP2
7473;SDS011;3778;42.572;23.426;2024-01-15T00:00:12;11.27;;;6.10;;
7473;SDS011;3778;42.572;23.426;2024-01-15T00:02:38;6.80;;;4.25;;
7473;SDS011;3778;42.572;23.426;2024-01-15T00:05:04;14.15;;;6.45;;
7473;SDS011;3778;42.572;23.426;2024-01-15T00:07:29;8.32;;;4.82;;
7473;SDS011;3778;42.572;23.426;2024-01-15T00:09:54;7.55;;;4.22;;
7473;SDS011;3778;42.572;23.426;2024-01-15T00:12:20;6.95;;;4.22;;
7473;SDS011;3778;42.572;23.426;2024-01-15T00:14:45;4.75;;;2.97;;
7473;SDS011;3778;42.572;23.426;2024-01-15T00:17:11;3.08;;;2.40;;
7473;SDS011;3778;42.572;23.426;2024-01-15T00:19:36;8.73;;;4.35;;
7473;SDS011;3778;42.572;23.426;2024-01-15T00:22:02;10.45;;;4.43;;
7473;SDS011;3778;42.572;23.426;2024-01-15T00:24:27;6.13;;;3.88;;
7473;SDS011;3778;42.572;23.426;2024-01-15T00:26:53;11.43;;;6.00;;
7473;SDS011;3778;42.572;23.426;2024-01-15T00:29:21;11.57;;;5.80;;
7473;SDS011;3778;42.572;23.426;2024-01-15T00:31:46;12.43;;;5.03;;
7473;SDS011;3778;42.572;23.426;2024-01-15T00:34:12;15.27;;;6.57;;
7473;SDS011;3778;42.572;23.426;2024-01-15T00:36:37;7.47;;;4.97;;
7473;SDS011;3778;42.572;23.426;2024-01-15T00:39:03;6.75;;;3.92;;
7473;SDS011;3778;42.572;23.426;2024-01-15T00:41:30;5.57;;;2.78;;
7473;SDS011;3778;42.572;23.426;2024-01-15T00:43:55;8.60;;;5.20;;
7473;SDS011;3778;42.572;23.426;2024-01-15T00:46:21;11.70;;;5.65;;
7473;SDS011;3778;42.572;23.426;2024-01-15T00:48:46;8.20;;;3.30;;
7473;SDS011;3778;42.572;23.426;2024-01-15T00:51:12;6.10;;;4.30;;
7473;SDS011;3778;42.572;23.426;2024-01-15T00:53:38;9.93;;;5.25;;
7473;SDS011;3778;42.572;23.426;2024-01-15T00:56:03;3.13;;;2.65;;
7473;SDS011;3778;42.572;23.426;2024-01-15T00:58:28;6.30;;;3.53;;
7473;SDS011;3778;42.572;23.426;2024-01-15T01:00:54;6.13;;;3.63;;
7473;SDS011;3778;42.572;23.426;2024-01-15T01:03:20;7.93;;;3.72;;
7473;SDS011;3778;42.572;23.426;2024-01-15T01:05:47;8.85;;;5.60;;
7473;SDS011;3778;42.572;23.426;2024-01-15T01:08:13;12.68;;;5.65;;
7473;SDS011;3778;42.572;23.426;2024-01-15T01:10:39;4.80;;;3.03;;
7473;SDS011;3778;42.572;23.426;2024-01-15T01:13:04;5.75;;;3.28;;
7473;SDS011;3778;42.572;23.426;2024-01-15T01:15:30;5.72;;;4.00;;
7473;SDS011;3778;42.572;23.426;2024-01-15T01:17:55;3.53;;;2.72;;
7473;SDS011;3778;42.572;23.426;2024-01-15T01:20:21;12.38;;;4.95;;
7473;SDS011;3778;42.572;23.426;2024-01-15T01:22:46;8.20;;;5.10;;
7473;SDS011;3778;42.572;23.426;2024-01-15T01:25:12;9.73;;;5.18;;
7473;SDS011;3778;42.572;23.426;2024-01-15T01:27:37;12.63;;;4.97;;
7473;SDS011;3778;42.572;23.426;2024-01-15T01:30:02;13.05;;;5.72;;
7473;SDS011;3778;42.572;23.426;2024-01-15T01:32:28;5.53;;;4.28;;
7473;SDS011;3778;42.572;23.426;2024-01-15T01:34:54;7.43;;;4.88;;
7473;SDS011;3778;42.572;23.426;2024-01-15T01:37:19;2.45;;;1.92;;
7473;SDS011;3778;42.572;23.426;2024-01-15T01:39:45;5.45;;;2.55;;
7473;SDS011;3778;42.572;23.426;2024-01-15T01:42:10;4.60;;;4.10;;
7473;SDS011;3778;42.572;23.426;2024-01-15T01:44:36;11.55;;;3.05;;
7473;SDS011;3778;42.572;23.426;2024-01-15T01:47:02;5.15;;;4.05;;
7473;SDS011;3778;42.572;23.426;2024-01-15T01:49:29;8.13;;;4.40;;
7473;SDS011;3778;42.572;23.426;2024-01-15T01:51:56;9.57;;;5.53;;
7473;SDS011;3778;42.572;23.426;2024-01-15T01:54:22;8.35;;;4.13;;
7473;SDS011;3778;42.572;23.426;2024-01-15T01:56:50;4.95;;;2.83;;
7473;SDS011;3778;42.572;23.426;2024-01-15T01:59:16;6.22;;;3.80;;
7473;SDS011;3778;42.572;23.426;2024-01-15T02:01:42;5.07;;;3.10;;
7473;SDS011;3778;42.572;23.426;2024-01-15T02:04:09;6.88;;;4.47;;
7473;SDS011;3778;42.572;23.426;2024-01-15T02:06:35;11.70;;;6.03;;
7473;SDS011;3778;42.572;23.426;2024-01-15T02:09:01;11.20;;;5.18;;
7473;SDS011;3778;42.572;23.426;2024-01-15T02:11:26;5.18;;;4.38;;
7473;SDS011;3778;42.572;23.426;2024-01-15T02:13:52;5.68;;;3.75;;
7473;SDS011;3778;42.572;23.426;2024-01-15T02:16:17;12.80;;;4.75;;
7473;SDS011;3778;42.572;23.426;2024-01-15T02:18:43;10.07;;;4.57;;
7473;SDS011;3778;42.572;23.426;2024-01-15T02:21:10;7.35;;;4.53;;
7473;SDS011;3778;42.572;23.426;2024-01-15T02:23:37;8.48;;;4.90;;
7473;SDS011;3778;42.572;23.426;2024-01-15T02:26:03;4.20;;;2.85;;
7473;SDS011;3778;42.572;23.426;2024-01-15T02:28:29;8.95;;;4.72;;
7473;SDS011;3778;42.572;23.426;2024-01-15T02:30:55;4.30;;;3.00;;
7473;SDS011;3778;42.572;23.426;2024-01-15T02:33:20;10.48;;;3.60;;
7473;SDS011;3778;42.572;23.426;2024-01-15T02:35:47;7.60;;;4.25;;
7473;SDS011;3778;42.572;23.426;2024-01-15T02:38:15;10.02;;;5.95;;
7473;SDS011;3778;42.572;23.426;2024-01-15T02:40:41;5.30;;;3.65;;
7473;SDS011;3778;42.572;23.426;2024-01-15T02:43:06;9.82;;;6.07;;
7473;SDS011;3778;42.572;23.426;2024-01-15T02:45:32;12.00;;;6.20;;
7473;SDS011;3778;42.572;23.426;2024-01-15T02:47:58;8.63;;;3.75;;
7473;SDS011;3778;42.572;23.426;2024-01-15T02:50:24;9.25;;;4.97;;
7473;SDS011;3778;42.572;23.426;2024-01-15T02:52:50;4.00;;;2.92;;
7473;SDS011;3778;42.572;23.426;2024-01-15T02:55:16;8.82;;;4.93;;
7473;SDS011;3778;42.572;23.426;2024-01-15T02:57:41;6.53;;;3.95;;
7473;SDS011;3778;42.572;23.426;2024-01-15T03:00:07;13.13;;;5.72;;
7473;SDS011;3778;42.572;23.426;2024-01-15T03:02:35;9.95;;;4.63;;
7473;SDS011;3778;42.572;23.426;2024-01-15T03:05:02;10.60;;;5.20;;
7473;SDS011;3778;42.572;23.426;2024-01-15T03:07:28;12.73;;;5.20;;
7473;SDS011;3778;42.572;23.426;2024-01-15T03:09:53;12.70;;;6.15;;
7473;SDS011;3778;42.572;23.426;2024-01-15T03:12:18;13.18;;;5.55;;
7473;SDS011;3778;42.572;23.426;2024-01-15T03:14:45;12.82;;;5.72;;
7473;SDS011;3778;42.572;23.426;2024-01-15T03:17:11;6.25;;;4.53;;
7473;SDS011;3778;42.572;23.426;2024-01-15T03:19:37;9.35;;;3.80;;
7473;SDS011;3778;42.572;23.426;2024-01-15T03:22:02;4.47;;;2.67;;
7473;SDS011;3778;42.572;23.426;2024-01-15T03:24:28;7.75;;;4.07;;
7473;SDS011;3778;42.572;23.426;2024-01-15T03:26:54;13.75;;;6.93;;
7473;SDS011;3778;42.572;23.426;2024-01-15T03:29:19;10.45;;;6.85;;
7473;SDS011;3778;42.572;23.426;2024-01-15T03:31:45;13.70;;;7.10;;
7473;SDS011;3778;42.572;23.426;2024-01-15T03:34:10;8.73;;;5.22;;
7473;SDS011;3778;42.572;23.426;2024-01-15T03:36:36;13.38;;;5.60;;
7473;SDS011;3778;42.572;23.426;2024-01-15T03:39:01;12.88;;;5.95;;
7473;SDS011;3778;42.572;23.426;2024-01-15T03:41:26;9.15;;;3.85;;
7473;SDS011;3778;42.572;23.426;2024-01-15T03:43:52;1.75;;;1.65;;
7473;SDS011;3778;42.572;23.426;2024-01-15T03:46:17;7.82;;;5.43;;
7473;SDS011;3778;42.572;23.426;2024-01-15T03:48:43;8.10;;;5.15;;
7473;SDS011;3778;42.572;23.426;2024-01-15T03:51:08;6.93;;;4.28;;
7473;SDS011;3778;42.572;23.426;2024-01-15T03:53:33;10.05;;;5.78;;
7473;SDS011;3778;42.572;23.426;2024-01-15T03:55:59;8.82;;;4.75;;
7473;SDS011;3778;42.572;23.426;2024-01-15T03:58:24;8.30;;;5.15;;
7473;SDS011;3778;42.572;23.426;2024-01-15T04:00:49;14.65;;;6.03;;
7473;SDS011;3778;42.572;23.426;2024-01-15T04:03:16;8.40;;;4.28;;
7473;SDS011;3778;42.572;23.426;2024-01-15T04:05:43;9.55;;;4.38;;
7473;SDS011;3778;42.572;23.426;2024-01-15T04:08:09;12.75;;;5.30;;
7473;SDS011;3778;42.572;23.426;2024-01-15T04:10:34;10.40;;;4.55;;
7473;SDS011;3778;42.572;23.426;2024-01-15T04:12:59;7.53;;;4.28;;
7473;SDS011;3778;42.572;23.426;2024-01-15T04:15:26;6.35;;;3.72;;
7473;SDS011;3778;42.572;23.426;2024-01-15T04:17:52;10.05;;;4.95;;
7473;SDS011;3778;42.572;23.426;2024-01-15T04:20:17;7.95;;;5.32;;
7473;SDS011;3778;42.572;23.426;2024-01-15T04:22:43;11.50;;;4.85;;
7473;SDS011;3778;42.572;23.426;2024-01-15T04:25:09;1.33;;;1.20;;
7473;SDS011;3778;42.572;23.426;2024-01-15T04:27:34;5.18;;;3.25;;
7473;SDS011;3778;42.572;23.426;2024-01-15T04:30:00;7.40;;;3.60;;
7473;SDS011;3778;42.572;23.426;2024-01-15T04:32:25;3.30;;;1.88;;
7473;SDS011;3778;42.572;23.426;2024-01-15T04:34:50;9.90;;;4.40;;
7473;SDS011;3778;42.572;23.426;2024-01-15T04:37:16;8.68;;;4.38;;
7473;SDS011;3778;42.572;23.426;2024-01-15T04:39:41;7.68;;;4.75;;
7473;SDS011;3778;42.572;23.426;2024-01-15T04:42:06;12.60;;;5.35;;
7473;SDS011;3778;42.572;23.426;2024-01-15T04:44:32;14.07;;;6.35;;
7473;SDS011;3778;42.572;23.426;2024-01-15T04:46:57;13.60;;;5.28;;
7473;SDS011;3778;42.572;23.426;2024-01-15T04:49:23;1.63;;;1.42;;
7473;SDS011;3778;42.572;23.426;2024-01-15T04:51:51;11.15;;;5.55;;
7473;SDS011;3778;42.572;23.426;2024-01-15T04:54:16;6.88;;;4.43;;
7473;SDS011;3778;42.572;23.426;2024-01-15T04:56:43;3.53;;;2.00;;
7473;SDS011;3778;42.572;23.426;2024-01-15T04:59:09;10.55;;;4.47;;
7473;SDS011;3778;42.572;23.426;2024-01-15T05:01:34;10.45;;;5.22;;
7473;SDS011;3778;42.572;23.426;2024-01-15T05:04:00;8.52;;;4.38;;
7473;SDS011;3778;42.572;23.426;2024-01-15T05:06:25;10.55;;;4.53;;
7473;SDS011;3778;42.572;23.426;2024-01-15T05:08:51;5.13;;;4.15;;
7473;SDS011;3778;42.572;23.426;2024-01-15T05:11:16;5.07;;;3.58;;
7473;SDS011;3778;42.572;23.426;2024-01-15T05:13:42;9.02;;;4.78;;
7473;SDS011;3778;42.572;23.426;2024-01-15T05:16:07;6.07;;;4.70;;
7473;SDS011;3778;42.572;23.426;2024-01-15T05:18:33;8.52;;;4.47;;
7473;SDS011;3778;42.572;23.426;2024-01-15T05:20:58;8.40;;;4.10;;
7473;SDS011;3778;42.572;23.426;2024-01-15T05:23:24;3.20;;;2.20;;
7473;SDS011;3778;42.572;23.426;2024-01-15T05:25:49;8.00;;;4.97;;
7473;SDS011;3778;42.572;23.426;2024-01-15T05:28:15;9.40;;;4.65;;
7473;SDS011;3778;42.572;23.426;2024-01-15T05:30:40;5.47;;;3.72;;
7473;SDS011;3778;42.572;23.426;2024-01-15T05:33:06;11.10;;;3.85;;
7473;SDS011;3778;42.572;23.426;2024-01-15T05:35:32;11.45;;;5.95;;
7473;SDS011;3778;42.572;23.426;2024-01-15T05:37:58;1.08;;;1.08;;
7473;SDS011;3778;42.572;23.426;2024-01-15T05:40:23;2.42;;;2.17;;
7473;SDS011;3778;42.572;23.426;2024-01-15T05:42:48;12.00;;;5.43;;
7473;SDS011;3778;42.572;23.426;2024-01-15T05:45:14;12.30;;;6.93;;
7473;SDS011;3778;42.572;23.426;2024-01-15T05:47:39;16.42;;;6.22;;
7473;SDS011;3778;42.572;23.426;2024-01-15T05:50:05;15.38;;;8.27;;
7473;SDS011;3778;42.572;23.426;2024-01-15T05:52:31;15.07;;;7.75;;
7473;SDS011;3778;42.572;23.426;2024-01-15T05:54:57;19.10;;;7.65;;
7473;SDS011;3778;42.572;23.426;2024-01-15T05:57:22;9.45;;;5.22;;
7473;SDS011;3778;42.572;23.426;2024-01-15T05:59:48;15.32;;;6.40;;
7473;SDS011;3778;42.572;23.426;2024-01-15T06:02:13;12.40;;;4.43;;
7473;SDS011;3778;42.572;23.426;2024-01-15T06:04:39;14.95;;;5.97;;
7473;SDS011;3778;42.572;23.426;2024-01-15T06:07:04;12.85;;;5.18;;
7473;SDS011;3778;42.572;23.426;2024-01-15T06:09:30;9.65;;;5.07;;
7473;SDS011;3778;42.572;23.426;2024-01-15T06:11:56;5.55;;;3.25;;
7473;SDS011;3778;42.572;23.426;2024-01-15T06:14:21;10.57;;;4.85;;
7473;SDS011;3778;42.572;23.426;2024-01-15T06:16:47;8.73;;;5.18;;
7473;SDS011;3778;42.572;23.426;2024-01-15T06:19:12;11.55;;;4.72;;
7473;SDS011;3778;42.572;23.426;2024-01-15T06:21:38;13.07;;;5.78;;
7473;SDS011;3778;42.572;23.426;2024-01-15T06:24:03;10.45;;;4.22;;
7473;SDS011;3778;42.572;23.426;2024-01-15T06:26:28;13.95;;;6.20;;
7473;SDS011;3778;42.572;23.426;2024-01-15T06:28:54;11.70;;;4.75;;
7473;SDS011;3778;42.572;23.426;2024-01-15T06:31:20;12.88;;;5.60;;
7473;SDS011;3778;42.572;23.426;2024-01-15T06:33:45;15.40;;;6.20;;
7473;SDS011;3778;42.572;23.426;2024-01-15T06:36:13;15.18;;;6.93;;
7473;SDS011;3778;42.572;23.426;2024-01-15T06:38:38;17.02;;;6.57;;
7473;SDS011;3778;42.572;23.426;2024-01-15T06:41:04;14.98;;;7.20;;
7473;SDS011;3778;42.572;23.426;2024-01-15T06:43:29;14.88;;;6.72;;
7473;SDS011;3778;42.572;23.426;2024-01-15T06:45:55;11.02;;;5.28;;
7473;SDS011;3778;42.572;23.426;2024-01-15T06:48:20;8.93;;;3.75;;
7473;SDS011;3778;42.572;23.426;2024-01-15T06:50:45;9.88;;;3.90;;
7473;SDS011;3778;42.572;23.426;2024-01-15T06:53:11;9.90;;;4.18;;
7473;SDS011;3778;42.572;23.426;2024-01-15T06:55:37;2.97;;;2.75;;
7473;SDS011;3778;42.572;23.426;2024-01-15T06:58:03;13.68;;;6.10;;
7473;SDS011;3778;42.572;23.426;2024-01-15T07:00:28;9.63;;;5.35;;
7473;SDS011;3778;42.572;23.426;2024-01-15T07:02:54;8.77;;;4.88;;
7473;SDS011;3778;42.572;23.426;2024-01-15T07:05:20;7.45;;;3.28;;
7473;SDS011;3778;42.572;23.426;2024-01-15T07:07:46;12.93;;;5.63;;
7473;SDS011;3778;42.572;23.426;2024-01-15T07:10:12;7.47;;;4.35;;
7473;SDS011;3778;42.572;23.426;2024-01-15T07:12:38;12.02;;;4.97;;
7473;SDS011;3778;42.572;23.426;2024-01-15T07:15:03;9.60;;;5.95;;
7473;SDS011;3778;42.572;23.426;2024-01-15T07:17:31;14.82;;;6.35;;
7473;SDS011;3778;42.572;23.426;2024-01-15T07:19:56;10.40;;;5.78;;
7473;SDS011;3778;42.572;23.426;2024-01-15T07:22:22;10.63;;;5.22;;
7473;SDS011;3778;42.572;23.426;2024-01-15T07:24:47;12.23;;;5.85;;
7473;SDS011;3778;42.572;23.426;2024-01-15T07:27:13;7.47;;;4.97;;
7473;SDS011;3778;42.572;23.426;2024-01-15T07:29:38;12.93;;;5.85;;
7473;SDS011;3778;42.572;23.426;2024-01-15T07:32:04;2.45;;;2.15;;
7473;SDS011;3778;42.572;23.426;2024-01-15T07:34:30;14.93;;;6.30;;
7473;SDS011;3778;42.572;23.426;2024-01-15T07:36:56;10.57;;;6.57;;
7473;SDS011;3778;42.572;23.426;2024-01-15T07:39:22;19.05;;;8.48;;
7473;SDS011;3778;42.572;23.426;2024-01-15T07:41:49;14.90;;;7.65;;
7473;SDS011;3778;42.572;23.426;2024-01-15T07:44:15;24.67;;;10.07;;
7473;SDS011;3778;42.572;23.426;2024-01-15T07:46:43;15.10;;;6.28;;
7473;SDS011;3778;42.572;23.426;2024-01-15T07:49:10;20.30;;;8.70;;
7473;SDS011;3778;42.572;23.426;2024-01-15T07:51:35;16.67;;;6.97;;
7473;SDS011;3778;42.572;23.426;2024-01-15T07:54:01;16.25;;;8.05;;
7473;SDS011;3778;42.572;23.426;2024-01-15T07:56:26;13.52;;;7.15;;
7473;SDS011;3778;42.572;23.426;2024-01-15T07:58:52;17.13;;;9.43;;
7473;SDS011;3778;42.572;23.426;2024-01-15T08:01:18;12.75;;;7.13;;
7473;SDS011;3778;42.572;23.426;2024-01-15T08:03:43;11.18;;;4.65;;
7473;SDS011;3778;42.572;23.426;2024-01-15T08:06:08;9.50;;;4.35;;
7473;SDS011;3778;42.572;23.426;2024-01-15T08:08:35;10.45;;;4.32;;
7473;SDS011;3778;42.572;23.426;2024-01-15T08:11:00;3.65;;;2.78;;
7473;SDS011;3778;42.572;23.426;2024-01-15T08:13:26;7.22;;;3.80;;
7473;SDS011;3778;42.572;23.426;2024-01-15T08:15:52;8.35;;;4.82;;
7473;SDS011;3778;42.572;23.426;2024-01-15T08:18:18;7.18;;;3.72;;
7473;SDS011;3778;42.572;23.426;2024-01-15T08:20:43;9.30;;;4.47;;
7473;SDS011;3778;42.572;23.426;2024-01-15T08:23:08;10.30;;;5.15;;
7473;SDS011;3778;42.572;23.426;2024-01-15T08:25:34;8.70;;;4.13;;
7473;SDS011;3778;42.572;23.426;2024-01-15T08:28:00;10.27;;;5.93;;
7473;SDS011;3778;42.572;23.426;2024-01-15T08:30:25;12.20;;;4.75;;
7473;SDS011;3778;42.572;23.426;2024-01-15T08:32:53;11.23;;;4.85;;
7473;SDS011;3778;42.572;23.426;2024-01-15T08:35:19;17.88;;;6.22;;
7473;SDS011;3778;42.572;23.426;2024-01-15T08:37:47;11.27;;;4.82;;
7473;SDS011;3778;42.572;23.426;2024-01-15T08:40:19;7.68;;;4.03;;
7473;SDS011;3778;42.572;23.426;2024-01-15T08:42:45;10.63;;;4.38;;
7473;SDS011;3778;42.572;23.426;2024-01-15T08:45:11;8.95;;;3.65;;
7473;SDS011;3778;42.572;23.426;2024-01-15T08:47:37;8.38;;;3.75;;
7473;SDS011;3778;42.572;23.426;2024-01-15T08:50:03;7.30;;;3.47;;
7473;SDS011;3778;42.572;23.426;2024-01-15T08:52:29;5.15;;;3.00;;
7473;SDS011;3778;42.572;23.426;2024-01-15T08:54:56;6.63;;;2.67;;
7473;SDS011;3778;42.572;23.426;2024-01-15T08:57:22;6.72;;;3.72;;
7473;SDS011;3778;42.572;23.426;2024-01-15T08:59:47;16.02;;;7.30;;
7473;SDS011;3778;42.572;23.426;2024-01-15T09:02:13;14.98;;;6.25;;
7473;SDS011;3778;42.572;23.426;2024-01-15T09:04:38;18.95;;;8.73;;
7473;SDS011;3778;42.572;23.426;2024-01-15T09:07:03;24.55;;;11.73;;
7473;SDS011;3778;42.572;23.426;2024-01-15T09:09:29;21.48;;;10.30;;
7473;SDS011;3778;42.572;23.426;2024-01-15T09:11:54;24.10;;;10.68;;
7473;SDS011;3778;42.572;23.426;2024-01-15T09:14:20;23.40;;;9.68;;
7473;SDS011;3778;42.572;23.426;2024-01-15T09:16:47;18.67;;;9.48;;
7473;SDS011;3778;42.572;23.426;2024-01-15T09:19:12;30.02;;;14.25;;
7473;SDS011;3778;42.572;23.426;2024-01-15T09:21:38;30.48;;;14.25;;
7473;SDS011;3778;42.572;23.426;2024-01-15T09:24:04;29.38;;;13.65;;
7473;SDS011;3778;42.572;23.426;2024-01-15T09:26:29;37.40;;;15.57;;
7473;SDS011;3778;42.572;23.426;2024-01-15T09:28:54;20.30;;;10.18;;
7473;SDS011;3778;42.572;23.426;2024-01-15T09:31:20;23.05;;;10.70;;
7473;SDS011;3778;42.572;23.426;2024-01-15T09:33:46;18.98;;;9.25;;
7473;SDS011;3778;42.572;23.426;2024-01-15T09:36:11;20.23;;;8.52;;
7473;SDS011;3778;42.572;23.426;2024-01-15T09:38:37;23.98;;;11.52;;
7473;SDS011;3778;42.572;23.426;2024-01-15T09:41:02;26.92;;;12.18;;
7473;SDS011;3778;42.572;23.426;2024-01-15T09:43:28;30.95;;;16.45;;
7473;SDS011;3778;42.572;23.426;2024-01-15T09:45:54;27.48;;;12.82;;
7473;SDS011;3778;42.572;23.426;2024-01-15T09:48:20;22.33;;;12.13;;
7473;SDS011;3778;42.572;23.426;2024-01-15T09:50:45;21.10;;;9.40;;
7473;SDS011;3778;42.572;23.426;2024-01-15T09:53:11;30.35;;;13.00;;
7473;SDS011;3778;42.572;23.426;2024-01-15T09:55:38;33.30;;;15.40;;
7473;SDS011;3778;42.572;23.426;2024-01-15T09:58:04;44.45;;;23.38;;
7473;SDS011;3778;42.572;23.426;2024-01-15T10:00:30;33.42;;;17.75;;
7473;SDS011;3778;42.572;23.426;2024-01-15T10:02:58;38.92;;;19.20;;
7473;SDS011;3778;42.572;23.426;2024-01-15T10:05:27;40.10;;;16.08;;
7473;SDS011;3778;42.572;23.426;2024-01-15T10:07:53;43.60;;;19.55;;
7473;SDS011;3778;42.572;23.426;2024-01-15T10:10:21;31.75;;;16.50;;
7473;SDS011;3778;42.572;23.426;2024-01-15T10:12:47;40.58;;;18.52;;
7473;SDS011;3778;42.572;23.426;2024-01-15T10:15:14;40.35;;;20.77;;
7473;SDS011;3778;42.572;23.426;2024-01-15T10:17:39;42.15;;;22.63;;
7473;SDS011;3778;42.572;23.426;2024-01-15T10:20:07;32.33;;;16.75;;
7473;SDS011;3778;42.572;23.426;2024-01-15T10:22:34;36.95;;;16.38;;
7473;SDS011;3778;42.572;23.426;2024-01-15T10:25:02;29.65;;;17.15;;
7473;SDS011;3778;42.572;23.426;2024-01-15T10:27:29;47.97;;;26.95;;
7473;SDS011;3778;42.572;23.426;2024-01-15T10:45:23;49.47;;;26.60;;
7473;SDS011;3778;42.572;23.426;2024-01-15T10:47:49;42.10;;;18.73;;
7473;SDS011;3778;42.572;23.426;2024-01-15T10:50:15;0.95;;;0.95;;
7473;SDS011;3778;42.572;23.426;2024-01-15T10:52:41;2.17;;;1.63;;
7473;SDS011;3778;42.572;23.426;2024-01-15T10:55:08;34.83;;;21.83;;
7473;SDS011;3778;42.572;23.426;2024-01-15T10:57:34;30.02;;;15.30;;
7473;SDS011;3778;42.572;23.426;2024-01-15T11:00:06;29.90;;;19.65;;
7473;SDS011;3778;42.572;23.426;2024-01-15T11:02:34;33.80;;;15.48;;
7473;SDS011;3778;42.572;23.426;2024-01-15T11:05:01;20.40;;;10.98;;
7473;SDS011;3778;42.572;23.426;2024-01-15T11:07:27;35.10;;;19.90;;
7473;SDS011;3778;42.572;23.426;2024-01-15T11:09:55;31.88;;;17.75;;
7473;SDS011;3778;42.572;23.426;2024-01-15T11:12:20;37.30;;;18.75;;
7473;SDS011;3778;42.572;23.426;2024-01-15T11:14:46;38.70;;;18.83;;
7473;SDS011;3778;42.572;23.426;2024-01-15T11:17:13;42.50;;;24.10;;
7473;SDS011;3778;42.572;23.426;2024-01-15T11:19:46;42.53;;;21.60;;
7473;SDS011;3778;42.572;23.426;2024-01-15T11:25:14;33.63;;;16.13;;
7473;SDS011;3778;42.572;23.426;2024-01-15T11:27:44;39.63;;;19.02;;
7473;SDS011;3778;42.572;23.426;2024-01-15T11:30:12;46.15;;;19.20;;
7473;SDS011;3778;42.572;23.426;2024-01-15T11:32:39;35.08;;;16.00;;
7473;SDS011;3778;42.572;23.426;2024-01-15T11:35:08;36.88;;;18.25;;
7473;SDS011;3778;42.572;23.426;2024-01-15T11:42:46;29.05;;;16.27;;
7473;SDS011;3778;42.572;23.426;2024-01-15T11:45:18;37.33;;;18.45;;
7473;SDS011;3778;42.572;23.426;2024-01-15T11:50:48;40.33;;;18.10;;
7473;SDS011;3778;42.572;23.426;2024-01-15T11:53:16;44.55;;;20.77;;
7473;SDS011;3778;42.572;23.426;2024-01-15T11:55:46;47.40;;;23.63;;
7473;SDS011;3778;42.572;23.426;2024-01-15T11:58:13;42.05;;;19.48;;
7473;SDS011;3778;42.572;23.426;2024-01-15T12:00:40;41.22;;;20.08;;
7473;SDS011;3778;42.572;23.426;2024-01-15T12:03:06;42.40;;;22.73;;
7473;SDS011;3778;42.572;23.426;2024-01-15T12:05:32;36.05;;;17.80;;
7473;SDS011;3778;42.572;23.426;2024-01-15T12:07:57;36.25;;;18.77;;
7473;SDS011;3778;42.572;23.426;2024-01-15T12:10:23;35.72;;;18.70;;
7473;SDS011;3778;42.572;23.426;2024-01-15T12:13:22;45.70;;;18.13;;
7473;SDS011;3778;42.572;23.426;2024-01-15T12:15:42;41.03;;;22.20;;
7473;SDS011;3778;42.572;23.426;2024-01-15T12:18:09;31.33;;;14.68;;
7473;SDS011;3778;42.572;23.426;2024-01-15T12:20:36;42.20;;;17.23;;
7473;SDS011;3778;42.572;23.426;2024-01-15T12:23:02;26.08;;;13.55;;
7473;SDS011;3778;42.572;23.426;2024-01-15T12:25:28;36.88;;;16.45;;
7473;SDS011;3778;42.572;23.426;2024-01-15T12:27:55;36.08;;;17.05;;
7473;SDS011;3778;42.572;23.426;2024-01-15T12:30:21;44.05;;;20.52;;
7473;SDS011;3778;42.572;23.426;2024-01-15T12:32:47;41.13;;;19.65;;
7473;SDS011;3778;42.572;23.426;2024-01-15T12:35:13;48.47;;;20.60;;
7473;SDS011;3778;42.572;23.426;2024-01-15T12:37:39;44.88;;;20.75;;
7473;SDS011;3778;42.572;23.426;2024-01-15T12:40:06;39.55;;;18.77;;
7473;SDS011;3778;42.572;23.426;2024-01-15T12:42:34;41.15;;;18.77;;
7473;SDS011;3778;42.572;23.426;2024-01-15T12:45:08;34.58;;;17.50;;
7473;SDS011;3778;42.572;23.426;2024-01-15T12:47:35;33.25;;;18.08;;
7473;SDS011;3778;42.572;23.426;2024-01-15T12:50:01;31.65;;;17.00;;
7473;SDS011;3778;42.572;23.426;2024-01-15T12:52:27;39.50;;;20.23;;
7473;SDS011;3778;42.572;23.426;2024-01-15T12:54:53;36.97;;;17.52;;
7473;SDS011;3778;42.572;23.426;2024-01-15T12:57:19;12.68;;;8.73;;
7473;SDS011;3778;42.572;23.426;2024-01-15T12:59:44;42.22;;;19.35;;
7473;SDS011;3778;42.572;23.426;2024-01-15T13:02:11;41.53;;;20.73;;
7473;SDS011;3778;42.572;23.426;2024-01-15T13:04:37;36.58;;;18.77;;
7473;SDS011;3778;42.572;23.426;2024-01-15T13:07:03;36.00;;;17.73;;
7473;SDS011;3778;42.572;23.426;2024-01-15T13:09:29;35.05;;;19.02;;
7473;SDS011;3778;42.572;23.426;2024-01-15T13:11:55;35.03;;;17.45;;
7473;SDS011;3778;42.572;23.426;2024-01-15T13:14:20;24.38;;;12.88;;
7473;SDS011;3778;42.572;23.426;2024-01-15T13:16:46;11.25;;;8.20;;
7473;SDS011;3778;42.572;23.426;2024-01-15T13:19:11;34.38;;;15.20;;
7473;SDS011;3778;42.572;23.426;2024-01-15T13:21:38;24.52;;;11.88;;
7473;SDS011;3778;42.572;23.426;2024-01-15T13:24:06;37.97;;;16.83;;
7473;SDS011;3778;42.572;23.426;2024-01-15T13:26:32;31.00;;;15.57;;
7473;SDS011;3778;42.572;23.426;2024-01-15T13:29:01;28.98;;;15.27;;
7473;SDS011;3778;42.572;23.426;2024-01-15T13:31:27;25.13;;;14.30;;
7473;SDS011;3778;42.572;23.426;2024-01-15T13:33:53;30.15;;;15.32;;
7473;SDS011;3778;42.572;23.426;2024-01-15T13:36:20;32.22;;;17.73;;
7473;SDS011;3778;42.572;23.426;2024-01-15T13:38:46;34.03;;;18.50;;
7473;SDS011;3778;42.572;23.426;2024-01-15T13:41:11;16.33;;;6.30;;
7473;SDS011;3778;42.572;23.426;2024-01-15T13:43:37;4.97;;;4.28;;
7473;SDS011;3778;42.572;23.426;2024-01-15T13:46:02;3.25;;;1.75;;
7473;SDS011;3778;42.572;23.426;2024-01-15T13:48:29;7.40;;;3.53;;
7473;SDS011;3778;42.572;23.426;2024-01-15T13:50:56;23.15;;;13.30;;
7473;SDS011;3778;42.572;23.426;2024-01-15T13:53:22;37.22;;;21.63;;
7473;SDS011;3778;42.572;23.426;2024-01-15T13:55:47;30.13;;;16.40;;
7473;SDS011;3778;42.572;23.426;2024-01-15T13:58:13;35.88;;;17.92;;
7473;SDS011;3778;42.572;23.426;2024-01-15T14:00:38;28.50;;;14.75;;
7473;SDS011;3778;42.572;23.426;2024-01-15T14:03:04;27.77;;;15.23;;
7473;SDS011;3778;42.572;23.426;2024-01-15T14:05:30;33.92;;;18.42;;
7473;SDS011;3778;42.572;23.426;2024-01-15T14:07:55;31.23;;;15.98;;
7473;SDS011;3778;42.572;23.426;2024-01-15T14:10:21;40.88;;;16.15;;
7473;SDS011;3778;42.572;23.426;2024-01-15T14:12:46;34.75;;;17.17;;
7473;SDS011;3778;42.572;23.426;2024-01-15T14:15:11;32.58;;;18.15;;
7473;SDS011;3778;42.572;23.426;2024-01-15T14:17:37;32.58;;;17.25;;
7473;SDS011;3778;42.572;23.426;2024-01-15T14:20:03;36.33;;;16.63;;
7473;SDS011;3778;42.572;23.426;2024-01-15T14:22:30;27.08;;;13.13;;
7473;SDS011;3778;42.572;23.426;2024-01-15T14:24:55;35.30;;;17.98;;
7473;SDS011;3778;42.572;23.426;2024-01-15T14:27:21;37.92;;;16.52;;
7473;SDS011;3778;42.572;23.426;2024-01-15T14:29:46;33.92;;;16.17;;
7473;SDS011;3778;42.572;23.426;2024-01-15T14:32:12;40.10;;;18.33;;
7473;SDS011;3778;42.572;23.426;2024-01-15T14:34:37;35.13;;;18.23;;
7473;SDS011;3778;42.572;23.426;2024-01-15T14:37:02;28.90;;;14.93;;
7473;SDS011;3778;42.572;23.426;2024-01-15T14:39:28;17.50;;;8.70;;
7473;SDS011;3778;42.572;23.426;2024-01-15T14:41:53;24.02;;;12.63;;
7473;SDS011;3778;42.572;23.426;2024-01-15T14:44:19;24.35;;;9.88;;
7473;SDS011;3778;42.572;23.426;2024-01-15T14:46:44;9.85;;;5.80;;
7473;SDS011;3778;42.572;23.426;2024-01-15T14:49:10;20.10;;;9.80;;
7473;SDS011;3778;42.572;23.426;2024-01-15T14:51:36;15.43;;;7.65;;
7473;SDS011;3778;42.572;23.426;2024-01-15T14:54:01;12.82;;;6.45;;
7473;SDS011;3778;42.572;23.426;2024-01-15T14:56:27;10.77;;;4.95;;
7473;SDS011;3778;42.572;23.426;2024-01-15T14:58:54;8.32;;;4.63;;
7473;SDS011;3778;42.572;23.426;2024-01-15T15:01:19;4.15;;;1.60;;
7473;SDS011;3778;42.572;23.426;2024-01-15T15:03:44;6.93;;;3.72;;
7473;SDS011;3778;42.572;23.426;2024-01-15T15:06:10;7.60;;;4.97;;